Alyeska Resort
Max's Hourly Weather Roundup
ALYESKA_MAX 5/28/2016
Click Here for Graph

        DATE  TIME   Air  Wind  Wind  Wind  BATT   Rel
                    Temp   Spd   Dir  Gust  Volt  Hum%
                      F   MPH   AVG   MPH   AVG   AVG

   5/28/2016 19:00    57     3   177     7 13.84    63
   5/28/2016 18:00    57     4   152     8 13.83    61
   5/28/2016 17:00    57     3   104     9 13.86    61
   5/28/2016 16:00    55     3   156     8 13.85    65
   5/28/2016 15:00    56     2   160     7 13.80    64
   5/28/2016 14:00    57     1    78     5 13.79    63
   5/28/2016 13:00    54     2   134     8 13.79    67
   5/28/2016 12:00    52     2   196     4 13.82    69
   5/28/2016 11:00    53     1   172     3 13.79    66
   5/28/2016 10:00    52     3   146     5 13.71    66
   5/28/2016 09:00    51     2   164     5 13.65    67
   5/28/2016 08:00    50     2   136     5 13.62    70
   5/28/2016 07:00    50     3   146     6 13.22    70
   5/28/2016 06:00    48     3   163     5 12.86    72
   5/28/2016 05:00    47     4   203     6 12.84    72
   5/28/2016 04:00    47     2   245     4 12.86    72
   5/28/2016 03:00    48     1   146     2 12.88    71
   5/28/2016 02:00    48     0   169     2 12.90    70
   5/28/2016 01:00    49     1   228     2 12.93    70
   5/27/2016 24:00    49     1   172     3 12.97    70
   5/27/2016 23:00    50     2   172     4 13.06    69
   5/27/2016 22:00    51     2    97     4 13.62    66
   5/27/2016 21:00    51     4    50     9 13.96    67
   5/27/2016 20:00    52     8   250    12 13.88    64


Click Here for Graph